• Join FlightAware (Why Join?)
  • Login
  • US Flag 
04:41PM EDT


 

Airport Tracker/Info


-or-


 

Live Flight TrackerFlight Track Log ✈ KAL1333 ✈ 18-Oct-2013 ✈ RKSS / GMP - RKJY / RSU

Flight Track Log - Related Links

Times and Time Zones

All times are in EDT time to prevent confusion due to time zone crossing. See the KAL1333 flight status page for this flight to view local times or setup timezone preferences in your user account.

Time Position Orientation Groundspeed Altitude Reporting Facility
EDT Latitude Longitude Course Direction KTS MPH feet Rate Location/Type
09:31PM 37.2071 126.9005 166° South  Level Estimated
09:32PM 37.1193 126.9279 166° South  Level Estimated
09:33PM 37.0315 126.9551 166° South  Level Estimated
09:34PM 36.9436 126.9823 166° South  Level Estimated
09:35PM 36.8558 127.0095 166° South  Level Estimated
09:36PM 36.7679 127.0365 166° South  Level Estimated
09:37PM 36.6801 127.0635 166° South  Level Estimated
09:38PM 36.5923 127.0905 166° South  Level Estimated
09:39PM 36.5044 127.1174 166° South  Level Estimated
09:40PM 36.4165 127.1442 166° South  Level Estimated
09:41PM 36.3287 127.1710 166° South  Level Estimated
09:42PM 36.2408 127.1977 166° South  Level Estimated
09:43PM 36.1529 127.2243 166° South  Level Estimated
09:44PM 36.0650 127.2509 166° South  Level Estimated
09:45PM 35.9771 127.2775 166° South  Level Estimated
09:46PM 35.8892 127.3039 166° South  Level Estimated
09:47PM 35.8013 127.3303 166° South  Level Estimated
09:48PM 35.7134 127.3567 166° South  Level Estimated
09:49PM 35.6255 127.3830 166° South  Level Estimated
09:50PM 35.5375 127.4092 166° South  Level Estimated
09:51PM 35.4496 127.4354 166° South  Level Estimated
09:52PM 35.3617 127.4615 166° South  Level Estimated
09:53PM 35.2737 127.4876 166° South  Level Estimated
09:54PM 35.1858 127.5136 166° South  Level Estimated
09:55PM 35.0978 127.5395 166° South  Level Estimated
09:56PM 35.0099 127.5654 166° South  Level Estimated
09:57PM 34.9219 127.5913 166° South  Level Estimated
09:58PM 34.8398 127.6153 166° South  Level Estimated
09:59PM 34.8398 127.6153 180° South  Level Estimated
10:00PM 34.8398 127.6153 180° South  Level Estimated
10:01PM 34.8398 127.6153 180° South  Level Estimated
10:02PM 34.8398 127.6153 180° South  Level Estimated
10:03PM 34.8398 127.6153 180° South  Level Estimated
10:04PM 34.8398 127.6153 180° South  Level Estimated
10:05PM 34.8398 127.6153 180° South  Level Estimated
10:06PM 34.8398 127.6153 180° South  Level Estimated
10:07PM 34.8398 127.6153 180° South  Level Estimated
10:08PM 34.8398 127.6153 180° South  Level Estimated
10:09PM 34.8398 127.6153 180° South  Level Estimated
10:10PM 34.8398 127.6153 180° South  Level Estimated
10:11PM 34.8398 127.6153 180° South  Level Estimated
10:12PM 34.8398 127.6153 180° South  Level Estimated
10:13PM 34.8398 127.6153 180° South  Level Estimated
10:14PM 34.8398 127.6153 180° South  Level Estimated